Latest Weather Observations for Glen Innes Airport

IDN60801

Issued at 10:05 pm EDT Thursday 27 November 2014 (issued every 30 minutes, with the page automatically refreshed every 10 minutes)

About weather observations | Map of weather stations | Latest weather observations for NSW | Other Formats
Station Details ID: 056243 Name: GLEN INNES AIRPORT AWS Lat: -29.68 Lon: 151.69 Height: 1044.3 m
Data from the previous 72 hours. | See also: Recent months for locations in New South Wales
Date/Time
EDT
Temp
°C
App
Temp
°C
Dew
Point
Rel
Hum
%
Delta-T
°C
Wind Press
QNH
hPa
Press
MSL
hPa
Rain
since 9 am
mm
Dir
 
Spd
km/h
Gust
km/h
Spd
kts
Gust
kts
27/10:00pm 14.1 8.1 10.9 81 1.8 ESE 33 43 18 23 1022.3 1018.3 0.0
27/09:30pm 14.6 8.7 11.2 80 1.9 ESE 33 43 18 23 1022.3 1018.3 0.0
27/09:00pm 15.3 9.7 11.5 78 2.1 ESE 32 46 17 25 1022.2 1018.2 0.0
27/08:30pm 15.7 8.9 11.9 78 2.2 ESE 39 48 21 26 1021.9 1018.0 0.0
27/08:00pm 16.0 10.1 12.4 79 2.1 ESE 35 46 19 25 1021.7 1017.7 0.0
27/07:30pm 16.2 10.4 12.6 79 2.1 ESE 35 48 19 26 1021.3 1017.3 0.0
27/07:00pm 17.1 10.5 12.6 75 2.6 ESE 39 48 21 26 1020.7 1016.7 0.0
27/06:30pm 18.3 12.0 13.4 73 2.9 ESE 39 48 21 26 1019.9 1015.9 0.0
27/06:00pm 19.7 12.6 13.4 67 3.8 E 43 54 23 29 1019.4 1015.4 0.0
27/05:30pm 21.3 15.8 14.7 66 4.1 E 37 52 20 28 1018.7 1014.7 0.0
27/05:00pm 23.3 17.9 14.0 56 5.7 E 35 48 19 26 1018.2 1014.1 0.0
27/04:48pm 24.4 18.2 12.7 48 7.1 E 37 44 20 24 1017.8 1013.8 0.0
27/04:42pm 25.0 19.9 10.5 40 8.5 SE 28 46 15 25 1018.1 1014.0 0.0
27/04:30pm 28.4 24.9 5.3 23 12.6 WSW 13 19 7 10 1017.7 1013.7 0.0
27/04:00pm 28.1 24.0 6.2 25 12.1 W 17 32 9 17 1018.1 1014.0 0.0
27/03:30pm 28.2 24.5 6.3 25 12.1 WNW 15 26 8 14 1018.4 1014.4 0.0
27/03:00pm 27.1 23.6 7.0 28 11.2 SW 15 24 8 13 1018.7 1014.7 0.0
27/02:30pm 25.0 22.1 6.7 31 10.0 NW 11 22 6 12 1019.1 1015.0 0.0
27/02:00pm 26.8 24.1 7.3 29 10.9 NW 11 26 6 14 1019.3 1015.3 0.0
27/01:30pm 25.6 22.7 6.3 29 10.5 SSW 11 24 6 13 1019.6 1015.6 0.0
27/01:00pm 25.7 21.5 5.8 28 10.7 WNW 17 20 9 11 1019.8 1015.8 0.0
27/12:30pm 25.8 21.5 7.9 32 10.0 W 20 32 11 17 1020.0 1016.0 0.0
27/12:00pm 25.6 22.1 10.2 38 8.9 W 19 37 10 20 1020.4 1016.4 0.0
27/11:30am 25.1 21.4 10.2 39 8.7 W 20 28 11 15 1020.8 1016.8 0.0
27/11:00am 24.8 21.5 11.7 44 7.8 W 20 30 11 16 1021.2 1017.2 0.0
27/10:30am 23.1 20.4 13.0 53 6.1 W 19 26 10 14 1021.3 1017.3 0.0
27/10:00am 21.9 19.7 13.3 58 5.2 W 17 24 9 13 1021.3 1017.3 0.0
27/09:30am 21.9 20.1 14.5 63 4.6 W 17 24 9 13 1021.3 1017.3 0.0
27/09:00am 20.2 17.8 14.3 69 3.6 W 20 28 11 15 1021.4 1017.4 0.0
27/08:30am 19.4 17.3 13.6 69 3.5 W 17 28 9 15 1021.3 1017.3 0.0
27/08:00am 18.8 17.8 14.5 76 2.6 W 13 19 7 10 1020.9 1016.9 0.0
27/07:30am 16.6 16.9 16.1 97 0.3 WSW 9 11 5 6 1020.6 1016.6 0.0
27/07:00am 14.7 16.1 14.4 98 0.2 CALM 0 0 0 0 1020.4 1016.4 0.0
27/06:30am 12.9 13.7 12.6 98 0.2 CALM 0 0 0 0 1020.2 1016.2 0.0
27/06:00am 11.4 11.7 10.9 97 0.3 CALM 0 0 0 0 1020.0 1016.0 0.0
27/05:30am 11.2 11.4 10.7 97 0.3 CALM 0 4 0 2 1019.8 1015.8 0.0
27/05:00am 11.4 10.4 10.9 97 0.3 ESE 7 9 4 5 1019.6 1015.6 0.0
27/04:30am 11.4 10.4 10.9 97 0.3 E 7 7 4 4 1019.5 1015.5 0.0
27/04:00am 11.3 10.2 10.7 96 0.3 SSE 7 9 4 5 1019.4 1015.4 0.0
27/03:30am 12.0 11.1 11.5 97 0.3 SSE 7 7 4 4 1019.5 1015.5 0.0
27/03:00am 11.7 12.1 11.1 96 0.3 CALM 0 0 0 0 1019.6 1015.6 0.0
27/02:30am 13.1 13.9 12.5 96 0.3 CALM 0 0 0 0 1019.7 1015.7 0.0
27/02:00am 13.2 14.0 12.4 95 0.5 CALM 0 0 0 0 1019.9 1015.9 0.0
27/01:30am 13.9 14.9 13.1 95 0.5 CALM 0 0 0 0 1020.4 1016.4 0.0
27/01:00am 14.1 15.0 13.0 93 0.6 CALM 0 0 0 0 1020.6 1016.6 0.0
27/12:30am 14.7 14.6 13.4 92 0.8 SSE 6 7 3 4 1020.8 1016.8 0.0
27/12:00am 16.0 17.1 14.5 91 0.9 NE 2 7 1 4 1021.0 1017.1 0.0
 
Date/Time
EDT
Temp
°C
App
Temp
°C
Dew
Point
Rel
Hum
%
Delta-T
°C
Wind Press
QNH
hPa
Press
MSL
hPa
Rain
since 9 am
mm
Dir
 
Spd
km/h
Gust
km/h
Spd
kts
Gust
kts
26/11:30pm 17.0 18.6 14.8 87 1.3 CALM 0 0 0 0 1021.4 1017.4 0.0
26/11:00pm 17.6 19.4 15.6 88 1.2 CALM 0 0 0 0 1021.4 1017.4 0.0
26/10:30pm 17.4 18.7 15.2 87 1.3 SE 2 6 1 3 1021.3 1017.3 0.0
26/10:00pm 17.2 17.4 14.8 86 1.5 SE 7 9 4 5 1021.3 1017.3 0.0
26/09:30pm 18.1 18.4 15.0 82 1.9 N 7 9 4 5 1020.9 1016.9 0.0
26/09:00pm 17.6 17.9 14.5 82 1.9 E 6 7 3 4 1020.7 1016.7 0.0
26/08:30pm 18.9 19.2 15.0 78 2.4 NNE 7 9 4 5 1020.4 1016.4 0.0
26/08:00pm 19.7 20.0 15.1 75 2.8 N 7 11 4 6 1020.5 1016.5 0.0
26/07:30pm 20.0 18.8 15.0 73 3.1 NNW 15 19 8 10 1020.2 1016.2 0.0
26/07:00pm 20.9 19.3 15.0 69 3.6 NNW 17 20 9 11 1020.0 1016.0 0.0
26/06:30pm 21.3 20.2 15.2 68 3.8 NNW 15 19 8 10 1019.9 1015.9 0.0
26/06:00pm 21.7 20.4 14.8 65 4.3 NW 15 19 8 10 1019.5 1015.5 0.0
26/05:30pm 22.0 20.0 14.9 64 4.4 NW 19 24 10 13 1019.6 1015.6 0.0
26/05:00pm 22.3 20.6 14.7 62 4.7 NNW 17 24 9 13 1019.3 1015.3 0.0
26/04:30pm 23.0 20.9 14.8 60 5.1 NW 19 24 10 13 1019.2 1015.1 0.0
26/04:00pm 23.0 21.3 14.8 60 5.1 NW 17 22 9 12 1019.4 1015.4 0.0
26/03:30pm 22.7 20.5 14.3 59 5.2 NW 19 28 10 15 1019.6 1015.6 0.0
26/03:00pm 23.1 20.8 14.7 59 5.2 NW 20 28 11 15 1019.8 1015.8 0.0
26/02:30pm 22.6 20.9 14.7 61 4.9 NNW 17 24 9 13 1019.7 1015.7 0.0
26/02:00pm 22.9 21.1 14.5 59 5.2 N 17 24 9 13 1020.2 1016.2 0.0
26/01:30pm 22.4 21.5 14.8 62 4.7 N 13 17 7 9 1020.5 1016.5 0.0
26/01:00pm 22.1 21.7 14.2 61 4.8 N 9 15 5 8 1020.8 1016.8 0.0
26/12:30pm 22.1 21.9 14.7 63 4.6 E 9 19 5 10 1020.9 1016.9 0.0
26/12:00pm 21.1 20.3 15.0 68 3.8 E 13 17 7 9 1021.4 1017.4 0.0
26/11:30am 20.6 20.1 14.9 70 3.5 SE 11 17 6 9 1021.6 1017.6 0.0
26/11:00am 21.2 20.7 14.8 67 3.9 ESE 11 17 6 9 1021.7 1017.7 0.0
26/10:30am 20.0 18.0 15.0 73 3.1 ESE 19 22 10 12 1021.6 1017.6 0.0
26/10:00am 20.0 17.9 15.2 74 3.0 SE 20 26 11 14 1021.7 1017.7 0.0
26/09:30am 19.4 17.3 15.1 76 2.6 SE 20 24 11 13 1021.6 1017.6 0.0
26/09:00am 19.6 17.7 15.3 76 2.6 E 19 26 10 14 1021.6 1017.6 0.0
26/08:30am 19.0 16.9 15.1 78 2.4 ESE 20 28 11 15 1021.6 1017.6 0.0
26/08:00am 18.2 16.2 14.9 81 2.0 E 19 24 10 13 1021.7 1017.7 0.0
26/07:30am 17.3 15.2 14.8 85 1.5 E 19 26 10 14 1021.4 1017.4 0.0
26/07:00am 16.5 13.8 14.7 89 1.1 E 22 26 12 14 1021.4 1017.4 0.0
26/06:30am 16.3 14.0 14.7 90 1.0 E 20 22 11 12 1021.3 1017.3 0.0
26/06:00am 16.1 14.4 14.6 91 0.9 E 17 24 9 13 1020.9 1016.9 0.0
26/05:30am 16.1 13.8 14.6 91 0.9 ESE 20 26 11 14 1020.6 1016.6 0.0
26/05:00am 16.0 13.9 14.7 92 0.8 ESE 19 24 10 13 1020.3 1016.3 0.0
26/04:30am 16.2 14.6 14.9 92 0.8 ESE 17 20 9 11 1020.0 1016.0 0.0
26/04:00am 16.5 15.6 14.9 90 1.0 E 13 19 7 10 1020.0 1016.0 0.0
26/03:30am 16.6 14.3 14.6 88 1.2 E 20 26 11 14 1020.0 1016.0 0.0
26/03:00am 16.8 13.7 14.4 86 1.4 E 24 30 13 16 1020.0 1016.0 0.0
26/02:30am 16.9 15.1 14.4 85 1.5 E 17 24 9 13 1020.5 1016.5 0.0
26/02:00am 16.7 13.6 14.5 87 1.3 E 24 32 13 17 1020.5 1016.5 0.0
26/01:30am 17.1 15.1 14.9 87 1.3 E 19 26 10 14 1020.7 1016.7 0.0
26/01:00am 17.1 15.1 14.9 87 1.3 E 19 24 10 13 1021.2 1017.2 0.0
26/12:30am 17.1 15.9 15.1 88 1.2 E 15 20 8 11 1021.4 1017.4 0.0
26/12:00am 17.2 14.6 15.0 87 1.3 E 22 30 12 16 1021.6 1017.6 0.0
 
Date/Time
EDT
Temp
°C
App
Temp
°C
Dew
Point
Rel
Hum
%
Delta-T
°C
Wind Press
QNH
hPa
Press
MSL
hPa
Rain
since 9 am
mm
Dir
 
Spd
km/h
Gust
km/h
Spd
kts
Gust
kts
25/11:30pm 17.3 14.3 14.9 86 1.5 E 24 32 13 17 1021.7 1017.7 0.0
25/11:00pm 17.3 14.3 14.9 86 1.5 ENE 24 33 13 18 1021.8 1017.9 0.0
25/10:30pm 17.7 15.1 15.0 84 1.6 E 22 28 12 15 1021.7 1017.7 0.0
25/10:00pm 17.9 15.7 15.0 83 1.8 E 20 30 11 16 1021.9 1018.0 0.0
25/09:30pm 17.9 16.4 15.2 84 1.7 E 17 24 9 13 1021.8 1017.9 0.0
25/09:00pm 17.9 15.8 15.3 85 1.6 E 20 28 11 15 1020.8 1016.8 0.0
25/08:30pm 18.3 15.8 15.2 82 1.9 E 22 32 12 17 1020.5 1016.5 0.0
25/08:00pm 19.6 17.3 14.2 71 3.3 E 19 24 10 13 1020.0 1016.0 0.0
25/07:30pm 20.1 19.2 13.8 67 3.8 E 11 20 6 11 1019.9 1015.9 0.0
25/07:00pm 20.8 20.4 14.0 65 4.1 ESE 9 11 5 6 1019.5 1015.5 0.0
25/06:30pm 21.3 20.6 14.2 64 4.3 E 11 15 6 8 1019.5 1015.5 0.0
25/06:00pm 21.6 21.1 13.8 61 4.7 ESE 9 11 5 6 1018.9 1014.9 0.0
25/05:30pm 22.1 22.3 14.2 61 4.8 SE 6 9 3 5 1018.6 1014.6 0.0
25/05:00pm 22.2 20.9 13.8 59 5.1 S 13 19 7 10 1018.7 1014.7 0.0
25/04:30pm 22.6 21.5 14.2 59 5.2 S 13 17 7 9 1018.6 1014.6 0.0
25/04:00pm 22.7 21.5 14.0 58 5.3 S 13 17 7 9 1018.4 1014.4 0.0
25/03:30pm 21.9 19.8 14.8 64 4.4 SSE 19 24 10 13 1018.6 1014.6 0.0
25/03:00pm 20.1 17.7 15.3 74 3.0 SSE 22 28 12 15 1018.9 1014.9 0.0
25/02:30pm 20.1 18.6 16.3 79 2.4 S 19 22 10 12 1019.6 1015.6 0.0
25/02:00pm 21.5 18.3 14.2 63 4.5 SW 24 32 13 17 1019.6 1015.6 0.0
25/01:30pm 24.0 21.2 12.6 49 6.9 SW 19 24 10 13 1019.2 1015.1 0.0
25/01:00pm 24.8 22.4 12.7 47 7.3 W 17 20 9 11 1019.2 1015.1 0.0
25/12:30pm 25.0 23.4 12.9 47 7.3 W 13 17 7 9 1019.1 1015.0 0.0
25/12:00pm 25.3 23.6 12.5 45 7.7 W 13 20 7 11 1019.3 1015.3 0.0
25/11:30am 26.0 25.2 12.8 44 8.0 W 9 19 5 10 1019.3 1015.3 0.0
25/11:00am 25.9 24.4 13.1 45 7.8 W 13 22 7 12 1019.4 1015.4 0.0
25/10:30am 26.2 24.0 13.3 45 7.9 SSW 17 24 9 13 1019.5 1015.5 0.0
25/10:00am 25.3 22.3 12.5 45 7.7 WSW 20 33 11 18 1019.6 1015.6 0.0
25/09:30am 24.7 22.1 13.3 49 7.0 W 19 26 10 14 1019.5 1015.5 0.0
25/09:00am 23.0 22.1 13.8 56 5.6 WNW 11 20 6 11 1019.5 1015.5 0.0
25/08:30am 22.6 21.9 14.2 59 5.2 W 11 17 6 9 1019.5 1015.5 0.0
25/08:00am 21.5 20.3 13.9 62 4.6 NW 13 17 7 9 1019.3 1015.3 0.0
25/07:30am 20.8 19.5 13.7 64 4.3 WNW 13 17 7 9 1019.2 1015.1 0.0
25/07:00am 19.2 18.9 12.7 66 3.8 WSW 6 9 3 5 1018.7 1014.7 0.0
25/06:30am 15.6 16.3 12.2 80 2.0 CALM 0 0 0 0 1018.6 1014.6 0.0
25/06:00am 14.6 15.0 11.4 81 1.8 CALM 0 0 0 0 1018.3 1014.2 0.0
25/05:30am 14.0 13.9 9.6 75 2.4 CALM 0 0 0 0 1017.8 1013.8 0.0
25/05:00am 14.4 13.4 10.2 76 2.3 SSE 6 7 3 4 1017.7 1013.7 0.0
25/04:30am 16.0 15.4 9.0 63 3.8 W 2 6 1 3 1017.6 1013.6 0.0
25/04:00am 18.2 16.6 10.1 59 4.5 WNW 9 11 5 6 1017.3 1013.2 0.0
25/03:30am 19.6 16.8 10.0 54 5.4 NW 15 20 8 11 1017.3 1013.2 0.0
25/03:00am 18.4 16.0 10.0 58 4.7 W 13 17 7 9 1017.4 1013.3 0.0
25/02:30am 20.1 16.9 9.9 52 5.8 WNW 17 20 9 11 1017.3 1013.2 0.0
25/02:00am 20.9 17.6 9.5 48 6.4 NW 17 20 9 11 1017.4 1013.3 0.0
25/01:30am 21.6 17.8 9.2 45 7.0 WNW 19 20 10 11 1017.6 1013.6 0.0
25/01:00am 22.3 18.8 8.8 42 7.5 NW 17 24 9 13 1017.9 1013.9 0.0
25/12:30am 22.0 19.0 10.5 48 6.6 W 17 24 9 13 1018.1 1014.0 0.0
25/12:00am 21.7 18.4 9.6 46 6.8 W 17 20 9 11 1018.1 1014.0 0.0
 
Date/Time
EDT
Temp
°C
App
Temp
°C
Dew
Point
Rel
Hum
%
Delta-T
°C
Wind Press
QNH
hPa
Press
MSL
hPa
Rain
since 9 am
mm
Dir
 
Spd
km/h
Gust
km/h
Spd
kts
Gust
kts
24/11:30pm 23.2 19.4 9.2 41 7.9 NW 19 22 10 12 1017.9 1013.9 0.0
24/11:00pm 23.9 20.6 9.5 40 8.2 NW 17 22 9 12 1018.3 1014.2 0.0
24/10:30pm 24.3 20.6 9.5 39 8.5 NW 19 24 10 13 1018.2 1014.1 0.0

Other Formats:

Comma delimited format used in spreadsheet applications
http://www.bom.gov.au/fwo/IDN60801/IDN60801.94588.axf

JavaScript Object Notation format (JSON) in row-major order
http://www.bom.gov.au/fwo/IDN60801/IDN60801.94588.json